createdAt,value
2018-04-15T00:00:24.256Z,94.40
2018-04-15T00:02:51.731Z,94.40
2018-04-15T00:05:19.974Z,94.40
2018-04-15T00:07:47.451Z,94.40
2018-04-15T00:10:15.055Z,94.40
2018-04-15T00:12:42.530Z,94.40
2018-04-15T00:15:10.026Z,94.30
2018-04-15T00:17:37.497Z,94.30
2018-04-15T00:20:05.749Z,94.40
2018-04-15T00:22:33.226Z,94.30
2018-04-15T00:25:01.481Z,94.40
2018-04-15T00:27:28.976Z,94.40
2018-04-15T00:29:57.216Z,94.30
2018-04-15T00:32:24.775Z,94.30
2018-04-15T00:34:52.302Z,94.30
2018-04-15T00:37:19.835Z,94.30
2018-04-15T00:39:48.090Z,94.30
2018-04-15T00:42:15.612Z,94.30
2018-04-15T00:44:43.237Z,94.50
2018-04-15T00:47:10.757Z,94.40
2018-04-15T00:49:38.239Z,94.40
2018-04-15T00:52:06.484Z,94.40
2018-04-15T00:54:33.976Z,94.40
2018-04-15T00:57:02.265Z,94.40
2018-04-15T00:59:29.812Z,94.40
2018-04-15T01:01:58.059Z,94.40
2018-04-15T01:04:25.597Z,94.40
2018-04-15T01:06:53.106Z,94.40
2018-04-15T01:09:21.383Z,94.60
2018-04-15T01:11:49.708Z,94.60
2018-04-15T01:14:17.205Z,94.60
2018-04-15T01:16:45.455Z,94.60
2018-04-15T01:19:12.930Z,94.60
2018-04-15T01:21:40.442Z,94.70
2018-04-15T01:24:07.939Z,94.70
2018-04-15T01:26:35.421Z,94.80
2018-04-15T01:29:03.667Z,95.00
2018-04-15T01:31:31.165Z,94.90
2018-04-15T01:33:58.674Z,94.90
2018-04-15T01:36:26.275Z,95.00
2018-04-15T01:38:54.522Z,95.10
2018-04-15T01:41:22.018Z,95.10
2018-04-15T01:43:50.339Z,95.10
2018-04-15T01:46:17.840Z,95.20
2018-04-15T01:48:46.136Z,95.10
2018-04-15T01:51:14.366Z,95.10
2018-04-15T01:53:41.887Z,95.20
2018-04-15T01:56:09.390Z,95.20
2018-04-15T01:58:36.923Z,95.20
2018-04-15T02:01:04.407Z,95.30
2018-04-15T02:03:31.944Z,95.40
2018-04-15T02:05:59.404Z,95.40
2018-04-15T02:08:27.031Z,95.40
2018-04-15T02:10:54.514Z,95.50
2018-04-15T02:13:21.983Z,95.50
2018-04-15T02:15:49.538Z,95.50
2018-04-15T02:18:16.995Z,95.50
2018-04-15T02:20:44.493Z,95.50
2018-04-15T02:23:11.952Z,95.50
2018-04-15T02:25:39.445Z,95.40
2018-04-15T02:28:07.772Z,95.60
2018-04-15T02:30:36.031Z,95.60
2018-04-15T02:33:03.491Z,95.60
2018-04-15T02:35:30.994Z,95.60
2018-04-15T02:37:59.239Z,95.60
2018-04-15T02:40:26.767Z,95.60
2018-04-15T02:42:54.279Z,95.50
2018-04-15T02:45:21.760Z,95.60
2018-04-15T02:47:50.033Z,95.70
2018-04-15T02:50:17.525Z,95.70
2018-04-15T02:52:45.041Z,95.70
2018-04-15T02:55:13.282Z,95.60
2018-04-15T02:57:41.032Z,95.60
2018-04-15T03:00:08.506Z,95.60
2018-04-15T03:02:36.516Z,95.70
2018-04-15T03:05:04.852Z,95.70
2018-04-15T03:07:32.341Z,95.70
2018-04-15T03:09:59.825Z,95.70
2018-04-15T03:12:27.303Z,95.60
2018-04-15T03:14:54.916Z,95.60
2018-04-15T03:17:22.419Z,95.50
2018-04-15T03:19:49.903Z,95.50
2018-04-15T03:22:17.408Z,95.50
2018-04-15T03:24:44.922Z,95.70
2018-04-15T03:27:12.417Z,95.60
2018-04-15T03:29:40.644Z,95.80
2018-04-15T03:32:08.887Z,95.80
2018-04-15T03:34:36.388Z,95.80
2018-04-15T03:37:03.919Z,95.90
2018-04-15T03:39:31.401Z,96.10
2018-04-15T03:41:58.893Z,96.20
2018-04-15T03:44:26.371Z,96.10
2018-04-15T03:46:54.634Z,96.50
2018-04-15T03:49:22.894Z,96.60
2018-04-15T03:51:50.605Z,96.50
2018-04-15T03:54:18.230Z,96.50
2018-04-15T03:56:45.807Z,96.70
2018-04-15T03:59:14.060Z,96.70
2018-04-15T04:01:41.549Z,96.70
2018-04-15T04:04:09.034Z,96.60
2018-04-15T04:06:36.550Z,96.90
2018-04-15T04:09:04.799Z,97.00
2018-04-15T04:11:32.268Z,97.00
2018-04-15T04:13:59.780Z,97.00
2018-04-15T04:16:27.253Z,97.00
2018-04-15T04:19:06.686Z,96.80
2018-04-15T04:21:46.067Z,97.00
2018-04-15T04:24:26.122Z,98.10
2018-04-15T04:26:54.820Z,97.60
2018-04-15T04:29:23.068Z,97.60
2018-04-15T04:31:50.536Z,97.60
2018-04-15T04:34:18.063Z,97.80
2018-04-15T04:36:45.525Z,98.00
2018-04-15T04:39:13.030Z,98.80
2018-04-15T04:41:41.293Z,99.30
2018-04-15T04:44:09.580Z,99.00
2018-04-15T04:46:37.916Z,99.30
2018-04-15T04:49:05.598Z,99.30
2018-04-15T04:51:33.301Z,99.70
2018-04-15T04:54:00.861Z,99.40
2018-04-15T04:56:28.492Z,99.50
2018-04-15T04:58:56.912Z,99.50
2018-04-15T05:01:24.426Z,99.50
2018-04-15T05:03:51.934Z,99.60
2018-04-15T05:06:19.437Z,99.90
2018-04-15T05:08:46.926Z,99.90
2018-04-15T05:11:14.455Z,99.90
2018-04-15T05:13:41.937Z,99.90
2018-04-15T05:16:10.256Z,99.90
2018-04-15T05:18:37.759Z,99.90
2018-04-15T05:21:05.274Z,99.90
2018-04-15T05:23:32.823Z,99.90
2018-04-15T05:26:01.083Z,99.90
2018-04-15T05:28:28.576Z,99.90
2018-04-15T05:30:56.059Z,99.90
2018-04-15T05:33:23.535Z,99.90
2018-04-15T05:35:51.811Z,99.90
2018-04-15T05:38:19.303Z,99.90
2018-04-15T05:40:46.844Z,99.90
2018-04-15T05:43:15.248Z,99.90
2018-04-15T05:45:42.899Z,99.90
2018-04-15T05:48:10.532Z,99.90
2018-04-15T05:50:38.958Z,99.90
2018-04-15T05:53:06.578Z,99.90
2018-04-15T05:55:34.891Z,99.90
2018-04-15T05:58:02.400Z,99.90
2018-04-15T06:00:29.888Z,99.90
2018-04-15T06:02:57.419Z,99.90
2018-04-15T06:05:24.894Z,99.90
2018-04-15T06:07:52.442Z,99.90
2018-04-15T06:10:19.953Z,99.90
2018-04-15T06:12:47.503Z,99.90
2018-04-15T06:15:15.014Z,99.90
2018-04-15T06:17:42.631Z,99.90
2018-04-15T06:20:10.120Z,99.90
2018-04-15T06:22:37.615Z,99.90
2018-04-15T06:25:05.888Z,99.90
2018-04-15T06:27:34.146Z,99.90
2018-04-15T06:30:01.646Z,99.90
2018-04-15T06:32:29.966Z,99.90
2018-04-15T06:34:57.565Z,99.90
2018-04-15T06:37:25.919Z,99.90
2018-04-15T06:39:53.411Z,99.90
2018-04-15T06:42:20.904Z,99.90
2018-04-15T06:44:48.499Z,99.90
2018-04-15T06:47:16.056Z,99.90
2018-04-15T06:49:43.555Z,99.90
2018-04-15T06:52:11.023Z,99.90
2018-04-15T06:54:39.365Z,99.90
2018-04-15T06:57:07.666Z,99.90
2018-04-15T06:59:35.202Z,99.90
2018-04-15T07:02:02.676Z,99.90
2018-04-15T07:04:30.961Z,99.90
2018-04-15T07:06:58.457Z,99.90
2018-04-15T07:09:25.967Z,99.90
2018-04-15T07:11:53.503Z,99.90
2018-04-15T07:14:20.987Z,99.90
2018-04-15T07:16:49.241Z,99.90
2018-04-15T07:19:16.718Z,99.90
2018-04-15T07:21:45.075Z,99.90
2018-04-15T07:24:12.518Z,99.90
2018-04-15T07:26:40.141Z,99.90
2018-04-15T07:29:07.783Z,99.90
2018-04-15T07:31:35.401Z,99.90
2018-04-15T07:34:03.133Z,99.90
2018-04-15T07:36:30.883Z,99.90
2018-04-15T07:38:59.205Z,99.90
2018-04-15T07:41:27.822Z,99.90
2018-04-15T07:43:56.120Z,99.90
2018-04-15T07:46:23.594Z,99.90
2018-04-15T07:48:51.919Z,99.90
2018-04-15T07:51:19.666Z,99.90
2018-04-15T07:53:47.180Z,99.90
2018-04-15T07:56:14.705Z,99.90
2018-04-15T07:58:42.170Z,99.90
2018-04-15T08:01:09.768Z,99.90
2018-04-15T08:03:37.262Z,99.90
2018-04-15T08:06:04.744Z,99.90
2018-04-15T08:08:33.088Z,99.90
2018-04-15T08:11:01.370Z,99.90
2018-04-15T08:13:28.913Z,99.90
2018-04-15T08:15:56.392Z,99.90
2018-04-15T08:18:23.907Z,99.90
2018-04-15T08:20:52.102Z,99.90
2018-04-15T08:23:20.301Z,99.90
2018-04-15T08:25:48.440Z,99.90
2018-04-15T08:28:16.090Z,99.90
2018-04-15T08:30:43.605Z,99.90
2018-04-15T08:33:11.257Z,99.90
2018-04-15T08:35:38.926Z,99.90
2018-04-15T08:38:06.799Z,99.90
2018-04-15T08:40:34.288Z,99.90
2018-04-15T08:43:02.515Z,99.90
2018-04-15T08:45:30.126Z,99.90
2018-04-15T08:47:57.759Z,99.90
2018-04-15T08:50:25.304Z,99.90
2018-04-15T08:52:53.724Z,99.90
2018-04-15T08:55:22.590Z,99.90
2018-04-15T08:57:50.127Z,99.90
2018-04-15T09:00:17.630Z,99.90
2018-04-15T09:02:46.298Z,99.90
2018-04-15T09:05:14.856Z,99.90
2018-04-15T09:07:42.339Z,99.90
2018-04-15T09:10:09.894Z,99.90
2018-04-15T09:12:38.142Z,99.90
2018-04-15T09:15:05.741Z,99.90
2018-04-15T09:17:33.228Z,99.90
2018-04-15T09:20:00.778Z,99.90
2018-04-15T09:22:28.294Z,99.90
2018-04-15T09:24:55.923Z,99.90
2018-04-15T09:27:23.379Z,99.90
2018-04-15T09:29:51.106Z,99.90
2018-04-15T09:32:19.445Z,99.90
2018-04-15T09:34:47.044Z,99.90
2018-04-15T09:37:14.593Z,99.90
2018-04-15T09:39:42.262Z,99.90
2018-04-15T09:42:09.774Z,99.90
2018-04-15T09:44:37.272Z,99.90
2018-04-15T09:47:04.900Z,99.80
2018-04-15T09:49:32.602Z,99.50
2018-04-15T09:52:00.206Z,98.60
2018-04-15T09:54:27.734Z,98.50
2018-04-15T09:56:55.249Z,98.00
2018-04-15T09:59:22.937Z,97.20
2018-04-15T10:01:50.496Z,98.40
2018-04-15T10:04:18.060Z,97.70
2018-04-15T10:06:45.616Z,97.20
2018-04-15T10:09:13.158Z,96.70
2018-04-15T10:11:40.718Z,96.30
2018-04-15T10:14:08.311Z,95.30
2018-04-15T10:16:36.065Z,94.10
2018-04-15T10:19:03.609Z,93.70
2018-04-15T10:21:31.106Z,93.90
2018-04-15T10:23:58.754Z,94.50
2018-04-15T10:26:26.224Z,93.90
2018-04-15T10:28:54.546Z,92.70
2018-04-15T10:31:22.060Z,92.70
2018-04-15T10:33:50.349Z,93.60
2018-04-15T10:36:17.995Z,93.60
2018-04-15T10:38:46.487Z,93.60
2018-04-15T10:41:14.822Z,93.50
2018-04-15T10:43:42.557Z,93.00
2018-04-15T10:46:10.070Z,93.10
2018-04-15T10:48:37.632Z,93.10
2018-04-15T10:51:05.915Z,92.90
2018-04-15T10:53:34.164Z,92.50
2018-04-15T10:56:01.690Z,92.50
2018-04-15T10:58:29.255Z,92.20
2018-04-15T11:00:56.752Z,92.00
2018-04-15T11:03:24.233Z,92.10
2018-04-15T11:05:52.509Z,93.30
2018-04-15T11:08:20.763Z,92.70
2018-04-15T11:10:48.246Z,92.60
2018-04-15T11:13:16.541Z,92.20
2018-04-15T11:15:44.119Z,92.10
2018-04-15T11:18:11.648Z,92.30
2018-04-15T11:20:39.261Z,91.40
2018-04-15T11:23:06.759Z,91.40
2018-04-15T11:25:34.995Z,91.90
2018-04-15T11:28:02.480Z,91.90
2018-04-15T11:30:30.009Z,91.10
2018-04-15T11:32:58.229Z,89.40
2018-04-15T11:35:26.486Z,87.10
2018-04-15T11:37:53.973Z,86.20
2018-04-15T11:40:21.453Z,85.30
2018-04-15T11:42:48.961Z,85.80
2018-04-15T11:45:16.751Z,84.90
2018-04-15T11:47:45.009Z,80.30
2018-04-15T11:50:13.359Z,82.60
2018-04-15T11:52:40.938Z,81.90
2018-04-15T11:55:08.487Z,83.30
2018-04-15T11:57:36.108Z,83.30
2018-04-15T12:00:03.698Z,83.20
2018-04-15T12:02:31.279Z,81.40
2018-04-15T12:04:59.035Z,79.00
2018-04-15T12:07:26.848Z,77.20
2018-04-15T12:09:54.563Z,75.50
2018-04-15T12:12:22.216Z,75.60
2018-04-15T12:14:49.817Z,76.10
2018-04-15T12:17:17.375Z,75.70
2018-04-15T12:19:45.099Z,75.10
2018-04-15T12:22:12.643Z,76.90
2018-04-15T12:24:40.270Z,73.80
2018-04-15T12:27:08.535Z,70.20
2018-04-15T12:29:36.097Z,70.20
2018-04-15T12:32:04.412Z,70.10
2018-04-15T12:34:31.953Z,70.20
2018-04-15T12:37:00.130Z,72.50
2018-04-15T12:39:27.632Z,71.30
2018-04-15T12:41:55.097Z,71.30
2018-04-15T12:44:23.196Z,72.30
2018-04-15T12:46:50.799Z,71.90
2018-04-15T12:49:18.270Z,72.30
2018-04-15T12:51:46.266Z,73.20
2018-04-15T12:54:13.749Z,73.60
2018-04-15T12:56:41.997Z,74.70
2018-04-15T12:59:09.556Z,74.50
2018-04-15T13:01:37.070Z,73.90
2018-04-15T13:04:04.706Z,74.40
2018-04-15T13:06:32.996Z,71.80
2018-04-15T13:09:00.480Z,71.80
2018-04-15T13:11:28.045Z,71.30
2018-04-15T13:13:55.571Z,72.30
2018-04-15T13:16:23.944Z,71.90
2018-04-15T13:18:51.590Z,71.80
2018-04-15T13:21:20.087Z,70.50
2018-04-15T13:23:48.393Z,69.40
2018-04-15T13:26:15.880Z,69.40
2018-04-15T13:28:43.458Z,70.40
2018-04-15T13:31:10.954Z,69.20
2018-04-15T13:33:38.560Z,69.60
2018-04-15T13:36:06.056Z,69.60
2018-04-15T13:38:34.382Z,69.30
2018-04-15T13:41:01.884Z,69.30
2018-04-15T13:43:30.124Z,69.80
2018-04-15T13:45:57.643Z,69.80
2018-04-15T13:48:26.066Z,68.60
2018-04-15T13:50:53.623Z,68.00
2018-04-15T13:53:21.141Z,67.20
2018-04-15T13:55:48.627Z,68.20
2018-04-15T13:58:16.321Z,68.10
2018-04-15T14:00:43.989Z,67.60
2018-04-15T14:03:11.941Z,67.50
2018-04-15T14:05:39.558Z,67.10
2018-04-15T14:08:07.602Z,67.60
2018-04-15T14:10:35.222Z,65.90
2018-04-15T14:13:02.710Z,63.50
2018-04-15T14:15:30.984Z,63.00
2018-04-15T14:17:58.447Z,62.90
2018-04-15T14:20:25.992Z,63.50
2018-04-15T14:22:53.505Z,63.20
2018-04-15T14:25:21.139Z,63.80
2018-04-15T14:27:48.603Z,62.90
2018-04-15T14:30:16.861Z,63.60
2018-04-15T14:32:44.372Z,63.60
2018-04-15T14:35:12.084Z,62.90
2018-04-15T14:37:40.367Z,65.40
2018-04-15T14:40:09.936Z,65.40
2018-04-15T14:42:37.480Z,65.40
2018-04-15T14:45:04.981Z,64.80
2018-04-15T14:47:32.494Z,65.00
2018-04-15T14:50:00.013Z,64.40
2018-04-15T14:52:28.260Z,62.30
2018-04-15T14:54:55.765Z,62.20
2018-04-15T14:57:23.281Z,62.60
2018-04-15T14:59:50.793Z,62.20
2018-04-15T15:02:18.379Z,60.40
2018-04-15T15:04:45.901Z,61.50
2018-04-15T15:07:14.156Z,60.60
2018-04-15T15:09:41.618Z,60.60
2018-04-15T15:12:09.103Z,60.50
2018-04-15T15:14:36.657Z,60.00
2018-04-15T15:17:04.167Z,59.80
2018-04-15T15:19:31.834Z,60.20
2018-04-15T15:21:59.380Z,60.20
2018-04-15T15:24:27.745Z,60.90
2018-04-15T15:26:55.226Z,60.60
2018-04-15T15:29:22.938Z,60.70
2018-04-15T15:31:50.540Z,60.00
2018-04-15T15:34:18.005Z,60.30
2018-04-15T15:36:45.983Z,59.10
2018-04-15T15:39:14.232Z,59.00
2018-04-15T15:41:41.783Z,58.90
2018-04-15T15:44:09.449Z,59.30
2018-04-15T15:46:37.037Z,57.70
2018-04-15T15:49:04.541Z,57.00
2018-04-15T15:51:32.768Z,57.20
2018-04-15T15:54:00.310Z,57.20
2018-04-15T15:56:27.775Z,58.50
2018-04-15T15:58:55.263Z,56.90
2018-04-15T16:01:22.735Z,57.20
2018-04-15T16:03:50.358Z,58.00
2018-04-15T16:06:17.844Z,58.00
2018-04-15T16:08:45.571Z,56.60
2018-04-15T16:11:13.233Z,57.30
2018-04-15T16:13:41.039Z,58.30
2018-04-15T19:31:24.570Z,93.60
2018-04-15T19:33:52.165Z,93.90
2018-04-15T19:36:20.031Z,94.40
2018-04-15T19:38:47.981Z,94.20
2018-04-15T19:41:15.535Z,94.60
2018-04-15T19:43:43.036Z,94.30
2018-04-15T19:46:10.676Z,94.40
2018-04-15T19:48:38.226Z,94.60
2018-04-15T19:51:07.213Z,94.50
2018-04-15T19:53:34.698Z,94.50
2018-04-15T19:56:02.207Z,95.40
2018-04-15T19:58:29.748Z,95.20
2018-04-15T20:00:57.240Z,95.40
2018-04-15T20:03:24.751Z,95.10
2018-04-15T20:05:53.032Z,95.30
2018-04-15T20:08:20.691Z,95.30
2018-04-15T20:10:53.042Z,95.20
2018-04-15T20:13:20.609Z,95.20
2018-04-15T20:15:48.113Z,94.80
2018-04-15T20:18:16.190Z,94.70
2018-04-15T20:20:44.747Z,94.90
2018-04-15T20:23:12.358Z,94.90
2018-04-15T20:25:40.633Z,94.90
2018-04-15T20:28:08.175Z,94.90
2018-04-15T20:30:36.287Z,95.00
2018-04-15T20:33:04.002Z,95.20
2018-04-15T20:35:31.659Z,95.20
2018-04-15T20:37:59.287Z,95.50
2018-04-15T20:40:27.270Z,95.70
2018-04-15T20:42:54.949Z,96.00
2018-04-15T20:45:22.528Z,96.10
2018-04-15T20:47:50.316Z,96.30
2018-04-15T20:50:17.866Z,96.40
2018-04-15T20:52:45.372Z,96.60
2018-04-15T20:55:12.975Z,96.70
2018-04-15T20:57:41.309Z,97.30
2018-04-15T21:00:09.108Z,97.30
2018-04-15T21:02:36.690Z,97.20
2018-04-15T21:05:04.431Z,97.20
2018-04-15T21:07:32.105Z,97.30
2018-04-15T21:10:00.503Z,97.50
2018-04-15T21:12:28.285Z,97.50
2018-04-15T21:14:56.230Z,97.60
2018-04-15T21:17:23.894Z,97.40
2018-04-15T21:19:51.709Z,97.70
2018-04-15T21:22:19.248Z,97.80
2018-04-15T21:24:46.850Z,98.00
2018-04-15T21:27:14.659Z,98.20
2018-04-15T21:29:42.439Z,97.80
2018-04-15T21:32:10.361Z,97.90
2018-04-15T21:34:38.755Z,97.90
2018-04-15T21:37:07.917Z,98.00
2018-04-15T21:39:35.490Z,98.00
2018-04-15T21:42:03.114Z,98.10
2018-04-15T21:44:31.453Z,98.40
2018-04-15T21:46:58.958Z,98.40
2018-04-15T21:49:27.361Z,98.10
2018-04-15T21:51:55.278Z,98.10
2018-04-15T21:54:22.886Z,98.10
2018-04-15T21:56:51.204Z,98.30
2018-04-15T21:59:18.726Z,98.30
2018-04-15T22:01:46.587Z,98.30
2018-04-15T22:04:14.918Z,98.50
2018-04-15T22:06:42.431Z,98.50
2018-04-15T22:09:10.872Z,98.60
2018-04-15T22:11:50.633Z,98.60
2018-04-15T22:14:18.998Z,98.80
2018-04-15T22:16:46.994Z,98.60
2018-04-15T22:19:15.465Z,98.80
2018-04-15T22:21:43.316Z,98.80
2018-04-15T22:24:10.795Z,98.80
2018-04-15T22:26:39.100Z,99.00
2018-04-15T22:29:07.295Z,98.90
2018-04-15T22:31:34.794Z,99.00
2018-04-15T22:34:03.049Z,99.10
2018-04-15T22:36:30.597Z,99.10
2018-04-15T22:38:58.169Z,99.10
2018-04-15T22:41:25.708Z,99.30
2018-04-15T22:43:53.253Z,99.20
2018-04-15T22:46:20.850Z,99.20
2018-04-15T22:48:48.362Z,99.30
2018-04-15T22:51:15.850Z,99.40
2018-04-15T22:53:44.792Z,99.60
2018-04-15T22:56:13.059Z,99.60
2018-04-15T22:58:47.186Z,99.60
2018-04-15T23:01:14.710Z,99.60
2018-04-15T23:03:42.793Z,99.80
2018-04-15T23:06:10.389Z,99.90
2018-04-15T23:08:37.907Z,99.90
2018-04-15T23:11:05.398Z,99.90
2018-04-15T23:13:33.722Z,99.90
2018-04-15T23:16:01.223Z,99.90
2018-04-15T23:18:29.560Z,99.90
2018-04-15T23:20:57.062Z,99.90
2018-04-15T23:23:25.358Z,99.90
2018-04-15T23:25:53.624Z,99.90
2018-04-15T23:28:21.179Z,99.90
2018-04-15T23:30:49.516Z,99.90
2018-04-15T23:33:17.008Z,99.90
2018-04-15T23:35:44.514Z,99.90
2018-04-15T23:38:12.027Z,99.90
2018-04-15T23:40:39.684Z,99.80
2018-04-15T23:43:07.257Z,99.80
2018-04-15T23:45:34.828Z,99.80
2018-04-15T23:48:02.336Z,99.80
2018-04-15T23:50:29.847Z,99.70
2018-04-15T23:52:57.348Z,99.80
2018-04-15T23:55:24.962Z,99.80
2018-04-15T23:57:52.603Z,99.80
